• Join FlightAware (Why Join?)
  • Login
  • US Flag 
11:18AM EDT


 

Airport Tracker/Info


-or-


 

Live Flight TrackerFlight Track Log ✈ DAL907 ✈ 28-Apr-2013 ✈ KORD - KMSP

Flight Track Log - Related Links

Times and Time Zones

All times are in EDT time to prevent confusion due to time zone crossing. See the DAL907 flight status page for this flight to view local times or setup timezone preferences in your user account.

Time Position Orientation Groundspeed Altitude Reporting Facility
EDT Latitude Longitude Course Direction KTS MPH feet Rate Location/Type
06:23PM 41.9833 -87.8833 346° North 166 191 1,800  Level Chicago TRACON
06:24PM 41.9667 -87.8167 109° East 217 250 2,800 1,680 Climbing Chicago TRACON
06:25PM 41.9667 -87.7167 90° East 274 315 5,000 2,580 Climbing Chicago TRACON
06:26PM 42.2661 -87.9957 350° North  Level FlightAware Approximate
06:26PM 41.9833 -87.6167 77° East 288 331 8,300  Level Chicago TRACON
06:27PM 42.3667 -88.0250 340° North  Level FlightAware Approximate
06:28PM 42.4660 -88.0599 352° North  Level FlightAware Approximate
06:29PM 42.5634 -88.0989 346° North  Level FlightAware Approximate
06:29PM 42.1233 -87.7128 333° Northwest 295 339 14,200  Level Chicago Center
06:30PM 42.2083 -87.7114 North 307 353 15,900 1,380 Climbing Chicago Center
06:31PM 42.3303 -87.7186 357° North 368 423 17,100 1,500 Climbing Chicago Center
06:32PM 42.4414 -87.7239 358° North 397 457 19,000 1,920 Climbing Chicago Center
06:33PM 42.5400 -87.8028 329° Northwest 408 470 21,100 1,680 Climbing Chicago Center
06:34PM 42.6364 -87.8872 327° Northwest 409 471 22,500 1,320 Climbing Chicago Center
06:35PM 42.7192 -88.0050 314° West 429 494 23,900 1,440 Climbing Chicago Center
06:36PM 42.8033 -88.1214 315° West 431 496 25,500 1,560 Climbing Chicago Center
06:37PM 42.9011 -88.2603 314° West 431 496 27,200 1,200 Climbing Chicago Center
06:38PM 42.9842 -88.3761 314° West 427 491 28,000 360 Climbing Chicago Center
06:39PM 43.0658 -88.4931 314° West 424 488 28,000  Level Chicago Center
06:40PM 43.1497 -88.6092 315° West 423 487 28,000  Level Chicago Center
06:41PM 43.2333 -88.7289 314° West 429 494 28,000  Level Chicago Center
06:42PM 43.3164 -88.8489 314° West 429 494 28,000  Level Chicago Center
06:43PM 43.4133 -88.9886 314° West 429 494 28,000  Level Chicago Center
06:44PM 43.4956 -89.1067 314° West 427 491 28,000  Level Chicago Center
06:45PM 43.5769 -89.2253 313° West 424 488 28,000  Level Chicago Center
06:46PM 43.6586 -89.3450 313° West 426 490 28,000  Level Chicago Center
06:47PM 43.6994 -89.4044 314° West 426 490 28,000  Level Minneapolis Center
06:48PM 43.7806 -89.5242 313° West 426 490 28,000  Level Minneapolis Center
06:49PM 43.8747 -89.6639 313° West 424 488 28,000  Level Minneapolis Center
06:50PM 43.9556 -89.7819 314° West 423 487 28,000  Level Minneapolis Center
06:51PM 44.0364 -89.9017 313° West 424 488 28,000  Level Minneapolis Center
06:52PM 44.1139 -90.0269 311° West 426 490 28,000  Level Minneapolis Center
06:53PM 44.1850 -90.1572 307° West 426 490 28,000  Level Minneapolis Center
06:54PM 44.2561 -90.2892 307° West 425 489 28,000  Level Minneapolis Center
06:55PM 44.3289 -90.4186 308° West 424 488 28,000  Level Minneapolis Center
06:56PM 44.4119 -90.5717 307° West 423 487 28,000  Level Minneapolis Center
06:57PM 44.4814 -90.7025 307° West 420 483 28,000  Level Minneapolis Center
06:58PM 44.5536 -90.8319 308° West 422 486 28,000  Level Minneapolis Center
06:59PM 44.6172 -90.9511 307° West 421 484 28,000  Level Minneapolis Center
07:00PM 44.7017 -91.1078 307° West 421 484 28,000 -60 Level Minneapolis Center
07:01PM 44.7714 -91.2381 307° West 420 483 27,900 -900 Descending Minneapolis Center
07:02PM 44.8386 -91.3644 307° West 412 474 26,200 -2,160 Descending Minneapolis Center
07:03PM 44.9028 -91.5039 303° West 385 443 23,500 -2,460 Descending Minneapolis Center
07:04PM 44.9269 -91.6392 284° West 369 425 21,200 -2,160 Descending Minneapolis Center
07:05PM 44.9517 -91.7628 286° West 357 411 19,100 -2,280 Descending Minneapolis Center
07:06PM 44.9772 -91.8950 285° West 353 406 16,600 -2,580 Descending Minneapolis Center
07:07PM 45.0058 -92.0472 285° West 337 388 13,900 -2,280 Descending Minneapolis Center
07:08PM 45.0281 -92.1694 284° West 323 372 11,900 -1,380 Descending Minneapolis Center
07:09PM 45.0492 -92.2889 284° West 315 362 11,100 -480 Descending Minneapolis Center
07:10PM 45.0103 -92.3933 242° Southwest 300 345 11,000 -480 Descending Minneapolis Center
07:11PM 44.9686 -92.4881 238° Southwest 286 329 10,200 -1,260 Descending Minneapolis Center
07:12PM 44.9264 -92.5797 237° Southwest 280 322 8,500 -1,560 Descending Minneapolis Center
07:13PM 44.8792 -92.6872 238° Southwest 271 312 7,000 -1,020 Descending Minneapolis Center
07:14PM 44.8258 -92.7342 212° Southwest 229 264 6,500 -780 Descending Minneapolis Center
07:16PM 44.7811 -92.7678 208° Southwest 187 215 5,500 -1,200 Descending Minneapolis Center
07:17PM 44.7847 -92.8361 274° West 190 219 4,100 -780 Descending Minneapolis Center
07:18PM 44.7928 -92.9103 279° West 193 222 4,000 -120 Descending Minneapolis Center
07:19PM 44.7972 -92.9839 275° West 190 219 3,900 -120 Descending Minneapolis Center